Time;durP1;ratioP1;P1;durP2;ratioP2;P2;SDS_P1;SDS_P2;PMS_P1;PMS_P2;Temp;Humidity;BMP_temperature;BMP_pressure;BME280_temperature;BME280_humidity;BME280_pressure;Samples;Min_cycle;Max_cycle;Signal;HPM_P1;HPM_P2
2022/03/27 00:00:42;;;;;;;8.93;7.15;;;;;;;;;;5052938;28;20045;-27
2022/03/27 00:03:08;;;;;;;11.70;8.48;;;;;;;;;;5060285;28;20037;-26
2022/03/27 00:05:34;;;;;;;11.23;8.25;;;;;;;;;;5073368;28;20090;-27
2022/03/27 00:08:00;;;;;;;11.73;7.50;;;;;;;;;;5072753;28;20119;-27
2022/03/27 00:10:26;;;;;;;10.63;8.05;;;;;;;;;;5072375;28;20090;-29
2022/03/27 00:12:52;;;;;;;10.80;8.05;;;;;;;;;;5072576;28;20046;-27
2022/03/27 00:15:18;;;;;;;10.65;8.77;;;;;;;;;;5072705;28;20128;-27
2022/03/27 00:17:45;;;;;;;12.07;8.95;;;;;;;;;;5072909;28;20090;-26
2022/03/27 00:20:12;;;;;;;11.63;8.15;;;;;;;;;;5072710;28;20036;-26
2022/03/27 00:22:39;;;;;;;12.85;8.93;;;;;;;;;;5072648;28;20094;-26
2022/03/27 00:25:06;;;;;;;10.43;7.95;;;;;;;;;;5072379;28;20111;-27
2022/03/27 00:27:32;;;;;;;11.60;8.98;;;;;;;;;;5072887;28;20083;-28
2022/03/27 00:29:58;;;;;;;12.38;9.05;;;;;;;;;;5072939;28;20051;-26
2022/03/27 00:32:24;;;;;;;10.55;8.35;;;;;;;;;;5072555;28;20044;-26
2022/03/27 00:34:51;;;;;;;11.52;8.77;;;;;;;;;;5072199;28;20505;-26
2022/03/27 00:37:17;;;;;;;13.25;8.95;;;;;;;;;;5072475;28;20036;-26
2022/03/27 00:39:44;;;;;;;12.48;8.98;;;;;;;;;;5072421;28;20155;-27
2022/03/27 00:42:10;;;;;;;13.93;9.85;;;;;;;;;;5072321;28;20036;-27
2022/03/27 00:44:38;;;;;;;13.90;10.00;;;;;;;;;;5072177;28;20045;-26
2022/03/27 00:47:05;;;;;;;14.40;9.13;;;;;;;;;;5054214;28;20525;-27
2022/03/27 00:49:32;;;;;;;14.02;9.05;;;;;;;;;;5072269;28;20113;-27
2022/03/27 00:51:58;;;;;;;13.98;9.32;;;;;;;;;;5071877;28;20067;-26
2022/03/27 00:54:24;;;;;;;12.90;9.23;;;;;;;;;;5072161;28;20438;-26
2022/03/27 00:56:50;;;;;;;14.60;9.75;;;;;;;;;;5072110;28;20497;-26
2022/03/27 00:59:17;;;;;;;13.90;10.05;;;;;;;;;;5072047;28;20120;-28
2022/03/27 01:01:43;;;;;;;12.95;9.85;;;;;;;;;;5072062;28;20049;-26
2022/03/27 01:04:10;;;;;;;12.65;9.23;;;;;;;;;;5071868;28;20036;-25
2022/03/27 01:06:41;;;;;;;15.27;9.82;;;;;;;;;;5072026;28;20090;-27
2022/03/27 01:11:54;;;;;;;16.27;10.63;;;;;;;;;;5071714;28;20087;-28
2022/03/27 01:14:31;;;;;;;14.63;10.00;;;;;;;;;;5071649;28;20052;-26
2022/03/27 01:17:01;;;;;;;16.10;10.77;;;;;;;;;;5071756;28;20508;-27
2022/03/27 01:19:28;;;;;;;14.80;10.88;;;;;;;;;;5071634;28;20040;-26
2022/03/27 01:21:54;;;;;;;17.05;10.80;;;;;;;;;;5071584;28;20101;-27
2022/03/27 01:24:20;;;;;;;18.08;11.93;;;;;;;;;;5070868;28;20540;-27
2022/03/27 01:26:46;;;;;;;19.52;11.77;;;;;;;;;;5071818;28;20043;-26
2022/03/27 01:29:12;;;;;;;17.17;11.70;;;;;;;;;;5071733;28;20087;-28
2022/03/27 01:31:38;;;;;;;20.48;12.48;;;;;;;;;;5071696;28;20033;-26
2022/03/27 01:34:05;;;;;;;18.73;12.55;;;;;;;;;;5071521;28;20053;-31
2022/03/27 01:36:34;;;;;;;21.95;13.38;;;;;;;;;;5071282;28;20568;-26
2022/03/27 01:39:01;;;;;;;22.73;13.82;;;;;;;;;;5071305;28;20051;-27
2022/03/27 01:41:27;;;;;;;23.35;13.88;;;;;;;;;;5071502;28;20083;-27
2022/03/27 01:43:53;;;;;;;24.85;13.75;;;;;;;;;;5071286;28;20036;-27
2022/03/27 01:46:19;;;;;;;23.02;13.05;;;;;;;;;;5071436;28;20044;-27
2022/03/27 01:48:46;;;;;;;25.55;14.75;;;;;;;;;;5071301;28;20049;-26
2022/03/27 01:51:12;;;;;;;27.85;14.15;;;;;;;;;;5071198;28;20127;-27
2022/03/27 01:53:41;;;;;;;24.50;13.85;;;;;;;;;;5070982;28;20051;-28
2022/03/27 01:56:08;;;;;;;24.33;14.75;;;;;;;;;;5071338;28;20157;-28
2022/03/27 01:58:38;;;;;;;25.77;14.50;;;;;;;;;;5071269;28;20636;-27
2022/03/27 02:01:05;;;;;;;25.75;14.50;;;;;;;;;;5071439;28;20397;-27
2022/03/27 02:03:31;;;;;;;27.00;14.52;;;;;;;;;;5071211;28;20044;-26
2022/03/27 02:05:57;;;;;;;25.95;14.60;;;;;;;;;;5071419;28;20166;-29
2022/03/27 02:08:23;;;;;;;26.05;14.30;;;;;;;;;;5070943;28;20262;-26
2022/03/27 02:10:50;;;;;;;25.00;14.38;;;;;;;;;;5071244;28;20041;-28
2022/03/27 02:13:21;;;;;;;23.90;13.82;;;;;;;;;;5071351;28;20385;-27
2022/03/27 02:15:48;;;;;;;26.00;13.15;;;;;;;;;;5071259;28;20045;-28
2022/03/27 02:18:14;;;;;;;25.85;13.88;;;;;;;;;;5070911;28;20036;-27
2022/03/27 02:20:41;;;;;;;25.77;14.35;;;;;;;;;;5071271;28;20444;-27
2022/03/27 02:23:08;;;;;;;24.02;14.38;;;;;;;;;;5070684;28;20052;-26
2022/03/27 02:25:34;;;;;;;28.27;15.20;;;;;;;;;;5070612;28;20040;-26
2022/03/27 02:28:01;;;;;;;23.75;13.40;;;;;;;;;;5071202;28;20037;-27
2022/03/27 02:30:27;;;;;;;30.02;15.88;;;;;;;;;;5071020;28;20036;-26
2022/03/27 02:32:53;;;;;;;28.67;14.13;;;;;;;;;;5071183;28;20044;-27
2022/03/27 02:35:19;;;;;;;26.20;15.27;;;;;;;;;;5072449;28;20071;-26
2022/03/27 02:37:45;;;;;;;27.30;14.32;;;;;;;;;;5074653;28;20044;-27
2022/03/27 02:40:11;;;;;;;26.02;14.35;;;;;;;;;;5074577;28;20127;-27
2022/03/27 02:42:37;;;;;;;27.70;15.25;;;;;;;;;;5074629;28;20401;-26
2022/03/27 02:45:05;;;;;;;26.73;15.07;;;;;;;;;;5074617;28;20041;-26
2022/03/27 02:47:31;;;;;;;23.25;14.15;;;;;;;;;;5074742;28;20439;-26
2022/03/27 02:49:57;;;;;;;27.77;14.18;;;;;;;;;;5074159;28;20040;-25
2022/03/27 02:52:24;;;;;;;24.00;13.40;;;;;;;;;;5074436;28;20453;-28
2022/03/27 02:54:50;;;;;;;23.33;13.90;;;;;;;;;;5074415;28;20505;-27
2022/03/27 02:57:16;;;;;;;22.52;12.43;;;;;;;;;;5074419;28;20072;-27
2022/03/27 02:59:42;;;;;;;19.83;12.48;;;;;;;;;;5073871;28;20039;-29
2022/03/27 03:02:08;;;;;;;20.35;11.50;;;;;;;;;;5073828;28;20087;-26
2022/03/27 03:04:35;;;;;;;20.95;11.50;;;;;;;;;;5074410;28;20062;-27
2022/03/27 03:07:01;;;;;;;19.30;11.13;;;;;;;;;;5074404;28;20097;-26
2022/03/27 03:09:27;;;;;;;18.30;10.88;;;;;;;;;;5074169;28;20040;-27
2022/03/27 03:11:53;;;;;;;18.27;10.88;;;;;;;;;;5073974;28;20044;-28
2022/03/27 03:14:19;;;;;;;18.55;11.70;;;;;;;;;;5073764;28;20048;-26
2022/03/27 03:16:46;;;;;;;20.60;11.48;;;;;;;;;;5074182;28;20044;-26
2022/03/27 03:19:12;;;;;;;20.00;11.32;;;;;;;;;;5073876;28;20063;-27
2022/03/27 03:21:40;;;;;;;18.60;10.75;;;;;;;;;;5073365;28;20054;-28
2022/03/27 03:24:07;;;;;;;17.13;10.07;;;;;;;;;;5073189;28;20087;-30
2022/03/27 03:26:33;;;;;;;18.45;11.18;;;;;;;;;;5073601;28;20075;-29
2022/03/27 03:28:59;;;;;;;17.08;10.80;;;;;;;;;;5073452;28;20043;-30
2022/03/27 03:31:25;;;;;;;16.23;10.35;;;;;;;;;;5073652;28;20401;-29
2022/03/27 03:33:51;;;;;;;20.60;11.43;;;;;;;;;;5073273;28;20451;-28
2022/03/27 03:36:17;;;;;;;18.48;10.85;;;;;;;;;;5073158;28;20127;-29
2022/03/27 03:38:43;;;;;;;15.93;10.25;;;;;;;;;;5072699;28;20040;-29
2022/03/27 03:41:09;;;;;;;15.38;9.77;;;;;;;;;;5073061;28;20072;-28
2022/03/27 03:43:36;;;;;;;17.35;11.18;;;;;;;;;;5073007;28;20428;-30
2022/03/27 03:46:05;;;;;;;18.63;10.93;;;;;;;;;;5072784;28;20036;-31
2022/03/27 03:48:32;;;;;;;18.02;11.05;;;;;;;;;;5072416;28;20040;-28
2022/03/27 03:50:58;;;;;;;18.75;10.90;;;;;;;;;;5072913;28;20036;-29
2022/03/27 03:53:25;;;;;;;17.05;11.38;;;;;;;;;;5072717;28;20502;-29
2022/03/27 03:55:51;;;;;;;20.55;11.82;;;;;;;;;;5072988;28;20037;-30
2022/03/27 03:58:17;;;;;;;21.65;11.02;;;;;;;;;;5073400;28;20514;-29
2022/03/27 04:00:46;;;;;;;19.50;11.02;;;;;;;;;;5072670;28;20045;-29
2022/03/27 04:03:13;;;;;;;19.08;10.68;;;;;;;;;;5072441;28;20053;-28
2022/03/27 04:05:39;;;;;;;19.30;10.85;;;;;;;;;;5073109;28;20470;-29
2022/03/27 04:08:05;;;;;;;19.70;11.18;;;;;;;;;;5072805;28;20045;-29
2022/03/27 04:10:31;;;;;;;22.38;11.60;;;;;;;;;;5072453;28;20032;-29
2022/03/27 04:12:57;;;;;;;16.60;10.60;;;;;;;;;;5072177;28;20047;-29
2022/03/27 04:15:24;;;;;;;21.48;11.68;;;;;;;;;;5072430;28;20044;-29
2022/03/27 04:17:51;;;;;;;21.48;11.45;;;;;;;;;;5072209;28;20068;-27
2022/03/27 04:20:18;;;;;;;21.33;12.07;;;;;;;;;;5072494;28;20124;-29
2022/03/27 04:22:45;;;;;;;20.27;11.30;;;;;;;;;;5037221;28;20048;-28
2022/03/27 04:25:12;;;;;;;18.27;10.63;;;;;;;;;;5072539;28;20032;-28
2022/03/27 04:27:38;;;;;;;18.95;11.35;;;;;;;;;;5072134;28;20534;-29
2022/03/27 04:30:09;;;;;;;21.13;10.70;;;;;;;;;;5071914;28;20043;-27
2022/03/27 04:32:35;;;;;;;22.95;11.25;;;;;;;;;;5071631;28;20037;-29
2022/03/27 04:35:02;;;;;;;21.60;10.73;;;;;;;;;;5054056;28;20051;-30
2022/03/27 04:37:28;;;;;;;17.67;9.52;;;;;;;;;;5071913;28;20540;-29
2022/03/27 04:40:01;;;;;;;19.70;9.45;;;;;;;;;;5071920;28;20083;-29
2022/03/27 04:42:28;;;;;;;20.60;9.27;;;;;;;;;;5071519;28;20048;-32
2022/03/27 04:44:54;;;;;;;19.58;10.93;;;;;;;;;;5071848;28;20036;-31
2022/03/27 04:47:20;;;;;;;19.88;10.23;;;;;;;;;;5072409;28;20041;-28
2022/03/27 04:49:46;;;;;;;19.88;10.40;;;;;;;;;;5072609;28;20036;-29
2022/03/27 04:52:12;;;;;;;17.10;9.85;;;;;;;;;;5072234;28;20079;-29
2022/03/27 04:54:39;;;;;;;17.20;9.57;;;;;;;;;;5071791;28;20043;-29
2022/03/27 04:57:05;;;;;;;17.05;9.10;;;;;;;;;;5071570;28;20509;-29
2022/03/27 04:59:31;;;;;;;15.90;9.45;;;;;;;;;;5070457;28;20032;-28
2022/03/27 05:01:58;;;;;;;19.75;10.65;;;;;;;;;;5068722;28;20040;-29
2022/03/27 05:04:25;;;;;;;20.35;9.10;;;;;;;;;;5061952;28;20041;-29
2022/03/27 05:06:52;;;;;;;17.92;9.32;;;;;;;;;;5061340;28;20128;-31
2022/03/27 05:09:19;;;;;;;22.15;10.50;;;;;;;;;;5044425;28;20041;-32
2022/03/27 05:11:45;;;;;;;19.52;9.88;;;;;;;;;;5063945;28;20037;-29
2022/03/27 05:14:11;;;;;;;20.45;9.68;;;;;;;;;;5059008;28;20051;-30
2022/03/27 05:16:37;;;;;;;21.58;10.20;;;;;;;;;;5060734;28;20513;-31
2022/03/27 05:19:06;;;;;;;18.90;10.43;;;;;;;;;;5069305;28;20040;-30
2022/03/27 05:21:34;;;;;;;21.92;10.27;;;;;;;;;;5058548;28;20037;-32
2022/03/27 05:24:01;;;;;;;21.42;10.02;;;;;;;;;;5030261;28;20050;-29
2022/03/27 05:26:27;;;;;;;25.80;10.40;;;;;;;;;;5062174;28;20040;-30
2022/03/27 05:28:54;;;;;;;16.70;9.27;;;;;;;;;;5071139;28;20093;-33
2022/03/27 05:31:20;;;;;;;17.30;8.65;;;;;;;;;;5071066;28;20505;-29
2022/03/27 05:33:46;;;;;;;24.15;9.25;;;;;;;;;;5070933;28;20052;-30
2022/03/27 05:36:13;;;;;;;21.42;9.32;;;;;;;;;;5070241;28;20107;-30
2022/03/27 05:38:40;;;;;;;20.92;9.38;;;;;;;;;;5070646;28;20536;-28
2022/03/27 05:41:07;;;;;;;24.50;8.80;;;;;;;;;;5071141;28;20060;-29
2022/03/27 05:43:33;;;;;;;22.95;8.00;;;;;;;;;;5070097;28;20045;-28
2022/03/27 05:45:59;;;;;;;21.20;8.93;;;;;;;;;;5040645;28;20498;-28
2022/03/27 05:48:26;;;;;;;21.52;8.88;;;;;;;;;;5058014;28;20106;-28
2022/03/27 05:50:52;;;;;;;18.02;7.97;;;;;;;;;;5064928;28;20037;-27
2022/03/27 05:53:18;;;;;;;14.85;7.93;;;;;;;;;;5061013;28;20040;-32
2022/03/27 05:55:44;;;;;;;20.48;7.95;;;;;;;;;;5057117;28;20109;-27
2022/03/27 05:58:10;;;;;;;19.45;7.68;;;;;;;;;;5060638;28;20033;-33
2022/03/27 06:00:36;;;;;;;17.98;8.15;;;;;;;;;;5056432;28;20044;-29
2022/03/27 06:03:03;;;;;;;21.05;8.35;;;;;;;;;;5060158;28;20040;-31
2022/03/27 06:05:29;;;;;;;23.80;9.20;;;;;;;;;;5059285;28;20064;-30
2022/03/27 06:07:56;;;;;;;20.73;8.93;;;;;;;;;;5061162;28;20431;-28
2022/03/27 06:10:23;;;;;;;25.90;8.40;;;;;;;;;;5066591;28;20036;-30
2022/03/27 06:12:50;;;;;;;25.65;8.48;;;;;;;;;;5074192;28;20044;-28
2022/03/27 06:15:16;;;;;;;24.48;8.07;;;;;;;;;;5074774;28;20045;-28
2022/03/27 06:17:44;;;;;;;26.60;8.38;;;;;;;;;;5074896;28;20040;-29
2022/03/27 06:20:16;;;;;;;22.08;8.25;;;;;;;;;;5074301;28;20040;-30
2022/03/27 06:22:42;;;;;;;30.38;9.15;;;;;;;;;;5069121;28;20128;-29
2022/03/27 06:25:09;;;;;;;18.45;7.78;;;;;;;;;;5075068;28;20036;-31
2022/03/27 06:27:36;;;;;;;20.75;9.00;;;;;;;;;;5075404;28;20086;-29
2022/03/27 06:30:03;;;;;;;21.95;7.63;;;;;;;;;;5074657;28;20049;-30
2022/03/27 06:32:29;;;;;;;21.50;8.05;;;;;;;;;;5073895;28;20037;-30
2022/03/27 06:34:56;;;;;;;29.75;9.38;;;;;;;;;;5074099;28;20136;-31
2022/03/27 06:37:22;;;;;;;22.20;8.27;;;;;;;;;;5073094;28;20037;-28
2022/03/27 06:39:49;;;;;;;30.65;8.93;;;;;;;;;;5069703;28;20036;-29
2022/03/27 06:42:15;;;;;;;21.55;7.30;;;;;;;;;;5059763;28;20115;-31
2022/03/27 06:44:41;;;;;;;28.98;8.93;;;;;;;;;;5059932;28;20132;-29
2022/03/27 06:47:08;;;;;;;24.30;8.48;;;;;;;;;;5064259;28;20401;-29
2022/03/27 06:49:34;;;;;;;27.02;8.18;;;;;;;;;;5057398;28;20071;-29
2022/03/27 06:52:01;;;;;;;26.33;8.43;;;;;;;;;;5047416;28;20039;-29
2022/03/27 06:54:29;;;;;;;28.48;8.57;;;;;;;;;;5057592;28;20099;-29
2022/03/27 06:56:55;;;;;;;32.03;8.93;;;;;;;;;;5073648;28;20047;-28
2022/03/27 06:59:22;;;;;;;29.98;8.07;;;;;;;;;;5071006;28;20398;-29
2022/03/27 07:04:33;;;;;;;21.85;7.68;;;;;;;;;;5059498;28;20071;-31
2022/03/27 07:07:00;;;;;;;26.38;8.52;;;;;;;;;;5067069;28;20037;-28
2022/03/27 07:09:26;;;;;;;23.95;8.60;;;;;;;;;;5063729;28;20581;-30
2022/03/27 07:11:52;;;;;;;27.73;8.30;;;;;;;;;;5058339;28;20080;-30
2022/03/27 07:14:19;;;;;;;28.27;8.77;;;;;;;;;;5058251;28;20043;-31
2022/03/27 07:16:45;;;;;;;29.13;9.02;;;;;;;;;;5065443;28;20037;-30
2022/03/27 07:19:14;;;;;;;24.48;7.97;;;;;;;;;;5073786;28;20040;-30
2022/03/27 07:21:42;;;;;;;28.17;8.13;;;;;;;;;;5054354;28;20052;-28
2022/03/27 07:24:09;;;;;;;24.92;7.45;;;;;;;;;;5073262;28;20040;-29
2022/03/27 07:26:36;;;;;;;26.05;8.43;;;;;;;;;;5073066;28;20037;-28
2022/03/27 07:29:04;;;;;;;27.13;10.05;;;;;;;;;;5073642;28;20508;-31
2022/03/27 07:31:31;;;;;;;34.75;10.27;;;;;;;;;;5074122;28;20059;-31
2022/03/27 07:33:57;;;;;;;27.42;8.30;;;;;;;;;;5074477;28;20039;-32
2022/03/27 07:36:23;;;;;;;31.98;9.52;;;;;;;;;;5056953;28;20405;-29
2022/03/27 07:38:49;;;;;;;23.77;8.38;;;;;;;;;;5074271;28;20036;-30
2022/03/27 07:41:16;;;;;;;27.58;7.85;;;;;;;;;;5056472;28;20036;-30
2022/03/27 07:43:42;;;;;;;33.67;9.07;;;;;;;;;;5074070;28;20460;-29
2022/03/27 07:46:09;;;;;;;26.90;8.60;;;;;;;;;;5074541;28;20052;-30
2022/03/27 07:48:35;;;;;;;29.80;7.82;;;;;;;;;;5074038;28;20040;-30
2022/03/27 07:51:01;;;;;;;28.00;8.23;;;;;;;;;;5073756;28;20041;-29
2022/03/27 07:53:28;;;;;;;32.35;8.48;;;;;;;;;;5039576;28;20076;-30
2022/03/27 07:55:54;;;;;;;29.00;9.55;;;;;;;;;;5074413;28;20122;-30
2022/03/27 07:58:20;;;;;;;33.72;9.18;;;;;;;;;;5073992;28;20040;-29
2022/03/27 08:00:46;;;;;;;30.10;9.30;;;;;;;;;;5041197;28;20076;-31
2022/03/27 08:03:12;;;;;;;31.10;9.65;;;;;;;;;;5064277;28;20484;-30
2022/03/27 08:05:39;;;;;;;25.73;9.68;;;;;;;;;;5035706;28;20040;-29
2022/03/27 08:08:05;;;;;;;24.45;7.93;;;;;;;;;;5053515;28;20041;-28
2022/03/27 08:10:31;;;;;;;30.38;7.93;;;;;;;;;;5053652;28;20503;-30
2022/03/27 08:12:59;;;;;;;30.40;7.97;;;;;;;;;;5053390;28;20045;-30
2022/03/27 08:15:25;;;;;;;26.42;8.18;;;;;;;;;;5035703;28;20048;-33
2022/03/27 08:17:53;;;;;;;29.38;8.45;;;;;;;;;;5053603;28;20041;-31
2022/03/27 08:20:21;;;;;;;24.30;7.95;;;;;;;;;;5053751;28;20080;-29
2022/03/27 08:22:47;;;;;;;28.33;9.77;;;;;;;;;;5053346;28;20044;-31
2022/03/27 08:26:55;;;;;;;30.77;10.15;;;;;;;;;;5019182;28;20041;-30
2022/03/27 08:27:59;;;;;;;27.75;9.82;;;;;;;;;;5052923;28;20037;-28
2022/03/27 08:30:25;;;;;;;29.15;9.90;;;;;;;;;;5052995;28;20046;-28
2022/03/27 08:32:51;;;;;;;38.95;9.68;;;;;;;;;;5052625;28;20041;-29
2022/03/27 08:35:17;;;;;;;24.50;8.85;;;;;;;;;;5053261;28;20037;-29
2022/03/27 08:37:44;;;;;;;26.40;9.20;;;;;;;;;;5052881;28;20041;-28
2022/03/27 08:40:10;;;;;;;29.90;10.30;;;;;;;;;;5052933;28;20047;-29
2022/03/27 08:42:36;;;;;;;25.80;8.23;;;;;;;;;;5052451;28;20120;-32
2022/03/27 08:45:02;;;;;;;24.65;8.65;;;;;;;;;;5052419;28;20041;-29
2022/03/27 08:47:28;;;;;;;25.17;8.93;;;;;;;;;;5052727;28;20507;-30
2022/03/27 08:50:04;;;;;;;23.98;8.25;;;;;;;;;;5056211;28;20036;-32
2022/03/27 08:52:35;;;;;;;25.02;8.77;;;;;;;;;;5035983;28;20063;-31
2022/03/27 08:55:07;;;;;;;22.80;8.50;;;;;;;;;;5057644;28;20037;-30
2022/03/27 08:58:00;;;;;;;29.75;10.50;;;;;;;;;;5054250;28;20041;-32
2022/03/27 09:00:29;;;;;;;24.98;9.23;;;;;;;;;;5061583;28;20045;-29
2022/03/27 09:02:56;;;;;;;30.00;9.63;;;;;;;;;;5054092;28;20546;-32
2022/03/27 09:05:23;;;;;;;28.35;9.13;;;;;;;;;;5049046;28;20154;-29
2022/03/27 09:07:50;;;;;;;25.85;9.85;;;;;;;;;;5068524;28;20097;-34
2022/03/27 09:10:16;;;;;;;28.38;9.80;;;;;;;;;;5070309;28;20136;-32
2022/03/27 09:12:44;;;;;;;20.42;9.10;;;;;;;;;;5070715;28;20040;-32
2022/03/27 09:15:10;;;;;;;27.88;10.63;;;;;;;;;;5070925;28;20051;-30
2022/03/27 09:17:54;;;;;;;24.45;10.25;;;;;;;;;;5046173;28;20036;-31
2022/03/27 09:20:31;;;;;;;28.13;10.55;;;;;;;;;;5066971;28;20390;-32
2022/03/27 09:23:04;;;;;;;20.95;9.07;;;;;;;;;;5055901;28;20383;-30
2022/03/27 09:25:42;;;;;;;20.35;8.98;;;;;;;;;;5065091;28;20033;-32
2022/03/27 09:28:08;;;;;;;22.77;9.35;;;;;;;;;;5050174;28;20037;-31
2022/03/27 09:30:36;;;;;;;28.23;10.15;;;;;;;;;;5050307;28;20238;-32
2022/03/27 09:33:02;;;;;;;22.98;9.10;;;;;;;;;;5051759;28;20045;-31
2022/03/27 09:35:29;;;;;;;23.88;9.70;;;;;;;;;;5054414;28;20040;-31
2022/03/27 09:37:55;;;;;;;21.80;10.20;;;;;;;;;;5066132;28;20044;-30
2022/03/27 09:40:21;;;;;;;26.40;10.55;;;;;;;;;;5067059;28;20086;-33
2022/03/27 09:42:47;;;;;;;21.50;10.13;;;;;;;;;;5068920;28;20040;-32
2022/03/27 09:45:24;;;;;;;19.38;9.15;;;;;;;;;;5054547;28;20072;-31
2022/03/27 09:47:53;;;;;;;20.67;9.65;;;;;;;;;;5069856;28;20630;-33
2022/03/27 09:50:48;;;;;;;27.50;9.82;;;;;;;;;;5053429;28;20468;-32
2022/03/27 09:53:23;;;;;;;22.48;9.88;;;;;;;;;;5030140;28;20067;-31
2022/03/27 09:55:53;;;;;;;21.85;9.60;;;;;;;;;;5052534;28;20127;-32
2022/03/27 09:58:37;;;;;;;21.50;9.40;;;;;;;;;;5064534;28;20040;-35
2022/03/27 10:01:09;;;;;;;20.70;9.40;;;;;;;;;;5053033;28;20394;-32
2022/03/27 10:03:36;;;;;;;19.77;8.65;;;;;;;;;;5052893;28;20515;-32
2022/03/27 10:06:03;;;;;;;20.38;8.40;;;;;;;;;;5063951;28;20180;-32
2022/03/27 10:08:29;;;;;;;20.55;8.65;;;;;;;;;;5037599;28;20117;-32
2022/03/27 10:10:58;;;;;;;26.23;8.98;;;;;;;;;;5069151;28;20202;-32
2022/03/27 10:13:29;;;;;;;18.77;8.88;;;;;;;;;;5070460;28;20082;-31
2022/03/27 10:15:57;;;;;;;19.48;8.75;;;;;;;;;;5058691;28;20226;-30
2022/03/27 10:18:24;;;;;;;24.85;9.10;;;;;;;;;;5053198;28;20108;-31
2022/03/27 10:20:55;;;;;;;20.70;8.27;;;;;;;;;;5055464;28;20049;-30
2022/03/27 10:23:26;;;;;;;20.23;9.25;;;;;;;;;;5052577;28;20119;-33
2022/03/27 10:25:59;;;;;;;20.75;8.48;;;;;;;;;;5069569;28;20036;-31
2022/03/27 10:28:26;;;;;;;22.38;8.77;;;;;;;;;;5070236;28;20037;-32
2022/03/27 10:30:52;;;;;;;22.85;8.40;;;;;;;;;;5066858;28;20397;-32
2022/03/27 10:33:19;;;;;;;20.90;7.70;;;;;;;;;;5060124;28;20044;-35
2022/03/27 10:35:51;;;;;;;21.52;8.55;;;;;;;;;;5070721;28;20048;-32
2022/03/27 10:38:17;;;;;;;20.63;8.48;;;;;;;;;;5071013;28;20045;-32
2022/03/27 10:40:49;;;;;;;20.85;7.38;;;;;;;;;;5070251;28;20667;-33
2022/03/27 10:43:25;;;;;;;18.23;7.43;;;;;;;;;;5070780;28;20569;-32
2022/03/27 10:46:09;;;;;;;20.88;8.55;;;;;;;;;;5054863;28;20600;-32
2022/03/27 10:48:42;;;;;;;17.85;7.85;;;;;;;;;;5057376;28;20033;-31
2022/03/27 10:51:09;;;;;;;21.52;7.95;;;;;;;;;;5056993;28;20394;-33
2022/03/27 10:53:35;;;;;;;22.13;7.90;;;;;;;;;;5066402;28;20044;-31
2022/03/27 10:56:03;;;;;;;21.95;7.80;;;;;;;;;;5069188;28;20047;-32
2022/03/27 10:58:29;;;;;;;18.58;7.35;;;;;;;;;;5065466;28;20278;-32
2022/03/27 11:00:56;;;;;;;16.88;7.93;;;;;;;;;;5072475;28;20386;-32
2022/03/27 11:03:40;;;;;;;24.75;9.15;;;;;;;;;;5053989;28;20047;-33
2022/03/27 11:06:20;;;;;;;19.45;7.63;;;;;;;;;;5054783;28;20082;-32
2022/03/27 11:08:46;;;;;;;19.02;7.15;;;;;;;;;;5073889;28;20044;-33
2022/03/27 11:11:12;;;;;;;18.58;6.78;;;;;;;;;;5073962;28;20033;-32
2022/03/27 11:13:43;;;;;;;18.73;6.95;;;;;;;;;;5067075;28;20044;-32
2022/03/27 11:16:12;;;;;;;17.88;7.10;;;;;;;;;;5065069;28;20041;-30
2022/03/27 11:18:40;;;;;;;16.90;6.80;;;;;;;;;;5053778;28;20059;-32
2022/03/27 11:21:07;;;;;;;19.13;7.78;;;;;;;;;;5064357;28;20041;-31
2022/03/27 11:23:36;;;;;;;19.98;7.63;;;;;;;;;;5057822;28;20041;-31
2022/03/27 11:26:03;;;;;;;17.67;6.90;;;;;;;;;;5061896;28;20055;-30
2022/03/27 11:28:46;;;;;;;16.80;6.90;;;;;;;;;;5061500;28;20037;-32
2022/03/27 11:31:12;;;;;;;20.77;7.05;;;;;;;;;;5054000;28;20398;-27
2022/03/27 11:33:38;;;;;;;16.27;6.35;;;;;;;;;;5053732;28;20132;-27
2022/03/27 11:36:07;;;;;;;15.88;5.47;;;;;;;;;;5053602;28;20056;-27
2022/03/27 11:38:52;;;;;;;15.40;6.55;;;;;;;;;;5053420;28;20469;-29
2022/03/27 11:41:46;;;;;;;19.50;6.55;;;;;;;;;;5053674;28;20051;-28
2022/03/27 11:44:24;;;;;;;15.70;6.68;;;;;;;;;;5053773;28;20086;-27
2022/03/27 11:46:54;;;;;;;15.85;6.35;;;;;;;;;;5053795;28;20064;-28
2022/03/27 11:49:24;;;;;;;15.65;6.28;;;;;;;;;;5053497;28;20044;-28
2022/03/27 11:52:05;;;;;;;17.88;5.57;;;;;;;;;;5053657;28;20065;-28
2022/03/27 11:54:31;;;;;;;15.05;5.68;;;;;;;;;;5053759;28;20094;-28
2022/03/27 11:56:59;;;;;;;18.75;6.35;;;;;;;;;;5053301;28;20448;-29
2022/03/27 11:59:28;;;;;;;17.15;5.80;;;;;;;;;;5052701;28;20040;-29
2022/03/27 12:01:55;;;;;;;14.48;6.45;;;;;;;;;;5035196;28;20040;-27
2022/03/27 12:04:21;;;;;;;18.98;6.72;;;;;;;;;;5053382;28;20104;-29
2022/03/27 12:06:48;;;;;;;15.55;5.65;;;;;;;;;;5053199;28;20037;-28
2022/03/27 12:09:25;;;;;;;16.67;5.47;;;;;;;;;;5052944;28;20059;-29
2022/03/27 12:12:11;;;;;;;16.75;5.70;;;;;;;;;;5052980;28;20052;-27
2022/03/27 12:14:50;;;;;;;17.00;6.85;;;;;;;;;;5053365;28;20512;-28
2022/03/27 12:17:16;;;;;;;13.38;5.38;;;;;;;;;;5052794;28;20126;-28
2022/03/27 12:19:56;;;;;;;15.93;5.60;;;;;;;;;;5052926;28;20037;-28
2022/03/27 12:22:51;;;;;;;16.20;5.65;;;;;;;;;;5053074;28;20540;-28
2022/03/27 12:25:19;;;;;;;16.27;5.35;;;;;;;;;;5043771;28;20056;-27
2022/03/27 12:30:35;;;;;;;14.13;5.38;;;;;;;;;;5052844;28;20043;-28
2022/03/27 12:33:02;;;;;;;12.45;4.95;;;;;;;;;;5052708;28;20463;-28
2022/03/27 12:35:32;;;;;;;15.20;5.43;;;;;;;;;;5034694;28;20131;-27
2022/03/27 12:37:58;;;;;;;15.25;5.60;;;;;;;;;;5052531;28;20040;-29
2022/03/27 12:40:25;;;;;;;12.30;4.50;;;;;;;;;;5052202;28;20049;-27
2022/03/27 12:42:53;;;;;;;13.18;4.82;;;;;;;;;;5052444;28;20392;-28
2022/03/27 12:45:22;;;;;;;14.00;5.00;;;;;;;;;;5052478;28;20048;-27
2022/03/27 12:47:49;;;;;;;12.40;4.95;;;;;;;;;;5034547;28;20037;-29
2022/03/27 12:50:31;;;;;;;12.85;5.20;;;;;;;;;;5052414;28;20037;-30
2022/03/27 12:52:59;;;;;;;13.05;5.38;;;;;;;;;;5052552;28;20045;-28
2022/03/27 12:55:26;;;;;;;13.15;4.93;;;;;;;;;;5052723;28;20071;-30
2022/03/27 12:57:56;;;;;;;14.63;5.80;;;;;;;;;;5052614;28;20387;-29
2022/03/27 13:00:23;;;;;;;14.90;5.53;;;;;;;;;;5052318;28;20047;-28
2022/03/27 13:02:49;;;;;;;15.13;4.90;;;;;;;;;;5052011;28;20049;-28
2022/03/27 13:05:27;;;;;;;11.55;5.03;;;;;;;;;;5052174;28;20041;-28
2022/03/27 13:07:53;;;;;;;13.80;4.95;;;;;;;;;;5052009;28;20311;-28
2022/03/27 13:10:19;;;;;;;16.35;5.45;;;;;;;;;;5051813;28;20143;-29
2022/03/27 13:12:47;;;;;;;12.82;4.65;;;;;;;;;;5052392;28;20037;-28
2022/03/27 13:15:13;;;;;;;11.65;4.47;;;;;;;;;;5052439;28;20475;-28
2022/03/27 13:17:39;;;;;;;12.18;4.22;;;;;;;;;;5052259;28;20501;-29
2022/03/27 13:20:05;;;;;;;11.73;4.75;;;;;;;;;;5051016;28;20044;-29
2022/03/27 13:22:31;;;;;;;12.23;4.47;;;;;;;;;;5051776;28;20478;-27
2022/03/27 13:24:57;;;;;;;12.27;4.53;;;;;;;;;;5052234;28;20525;-28
2022/03/27 13:27:23;;;;;;;12.05;4.47;;;;;;;;;;5052251;28;20171;-28
2022/03/27 13:29:49;;;;;;;11.07;4.15;;;;;;;;;;5052158;28;20598;-27
2022/03/27 13:32:16;;;;;;;13.75;4.38;;;;;;;;;;5052006;28;20044;-28
2022/03/27 13:34:42;;;;;;;11.90;4.13;;;;;;;;;;5034166;28;20044;-27
2022/03/27 13:37:08;;;;;;;10.52;4.05;;;;;;;;;;5051334;28;20045;-28
2022/03/27 13:39:34;;;;;;;13.35;4.88;;;;;;;;;;5051827;28;20486;-29
2022/03/27 13:44:44;;;;;;;9.73;4.05;;;;;;;;;;5052138;28;20060;-28
2022/03/27 13:47:12;;;;;;;10.15;4.63;;;;;;;;;;5051793;28;20041;-28
2022/03/27 13:49:38;;;;;;;12.18;5.00;;;;;;;;;;5051566;28;20116;-29
2022/03/27 13:52:04;;;;;;;10.63;3.83;;;;;;;;;;5051357;28;20037;-29
2022/03/27 13:54:30;;;;;;;9.75;4.07;;;;;;;;;;5051521;28;20076;-28
2022/03/27 13:56:56;;;;;;;8.75;3.70;;;;;;;;;;5051531;28;20486;-29
2022/03/27 13:59:23;;;;;;;12.13;4.38;;;;;;;;;;5051816;28;20397;-29
2022/03/27 14:01:51;;;;;;;13.05;4.78;;;;;;;;;;5051678;28;20123;-28
2022/03/27 14:04:17;;;;;;;10.40;4.40;;;;;;;;;;5051640;28;20041;-28
2022/03/27 14:06:44;;;;;;;10.50;4.00;;;;;;;;;;5052079;28;20398;-29
2022/03/27 14:09:10;;;;;;;11.93;4.07;;;;;;;;;;5051943;28;20120;-28
2022/03/27 14:11:37;;;;;;;10.32;3.75;;;;;;;;;;5051613;28;20399;-29
2022/03/27 14:14:03;;;;;;;10.30;3.92;;;;;;;;;;5033616;28;20121;-29
2022/03/27 14:16:29;;;;;;;11.48;3.88;;;;;;;;;;5034037;28;20052;-27
2022/03/27 14:18:55;;;;;;;9.30;3.60;;;;;;;;;;5051529;28;20127;-28
2022/03/27 14:21:22;;;;;;;10.95;3.92;;;;;;;;;;5051420;28;20424;-28
2022/03/27 14:23:48;;;;;;;11.52;3.92;;;;;;;;;;5051455;28;20064;-30
2022/03/27 14:26:15;;;;;;;11.25;4.60;;;;;;;;;;5051372;28;20041;-28
2022/03/27 14:28:41;;;;;;;12.13;4.03;;;;;;;;;;5051377;28;20457;-28
2022/03/27 14:31:07;;;;;;;9.68;3.83;;;;;;;;;;5052729;28;20041;-27
2022/03/27 14:33:33;;;;;;;11.30;3.78;;;;;;;;;;5037839;28;20044;-29
2022/03/27 14:36:00;;;;;;;9.65;3.40;;;;;;;;;;5055584;28;20060;-29
2022/03/27 14:38:27;;;;;;;9.63;3.47;;;;;;;;;;5055269;28;20051;-29
2022/03/27 14:40:58;;;;;;;8.77;3.47;;;;;;;;;;5055216;28;20437;-29